sensor_id;sensor_type;location;lat;lon;timestamp;P1;durP1;ratioP1;P2;durP2;ratioP2
35243;SDS011;37916;52.160;21.066;2023-10-13T00:04:33;15.68;;;7.28;;
35243;SDS011;37916;52.160;21.066;2023-10-13T00:14:37;16.00;;;8.43;;
35243;SDS011;37916;52.160;21.066;2023-10-13T00:24:38;14.32;;;7.40;;
35243;SDS011;37916;52.160;21.066;2023-10-13T00:34:43;15.13;;;7.43;;
35243;SDS011;37916;52.160;21.066;2023-10-13T00:44:44;16.13;;;7.45;;
35243;SDS011;37916;52.160;21.066;2023-10-13T00:54:48;11.80;;;7.18;;
35243;SDS011;37916;52.160;21.066;2023-10-13T01:04:49;24.00;;;8.75;;
35243;SDS011;37916;52.160;21.066;2023-10-13T01:14:50;20.17;;;9.57;;
35243;SDS011;37916;52.160;21.066;2023-10-13T01:24:51;18.27;;;8.50;;
35243;SDS011;37916;52.160;21.066;2023-10-13T01:35:04;22.05;;;8.43;;
35243;SDS011;37916;52.160;21.066;2023-10-13T01:45:06;19.33;;;9.15;;
35243;SDS011;37916;52.160;21.066;2023-10-13T01:55:07;17.50;;;9.13;;
35243;SDS011;37916;52.160;21.066;2023-10-13T02:05:11;18.40;;;9.05;;
35243;SDS011;37916;52.160;21.066;2023-10-13T02:15:12;20.10;;;8.25;;
35243;SDS011;37916;52.160;21.066;2023-10-13T02:25:26;15.10;;;6.97;;
35243;SDS011;37916;52.160;21.066;2023-10-13T02:35:42;13.02;;;6.43;;
35243;SDS011;37916;52.160;21.066;2023-10-13T02:45:53;13.93;;;5.88;;
35243;SDS011;37916;52.160;21.066;2023-10-13T02:55:59;7.70;;;4.47;;
35243;SDS011;37916;52.160;21.066;2023-10-13T03:06:05;8.15;;;4.55;;
35243;SDS011;37916;52.160;21.066;2023-10-13T03:16:12;7.97;;;4.75;;
35243;SDS011;37916;52.160;21.066;2023-10-13T03:26:16;9.40;;;5.57;;
35243;SDS011;37916;52.160;21.066;2023-10-13T03:36:19;10.40;;;5.20;;
35243;SDS011;37916;52.160;21.066;2023-10-13T03:46:38;14.40;;;7.07;;
35243;SDS011;37916;52.160;21.066;2023-10-13T03:56:42;15.23;;;6.90;;
35243;SDS011;37916;52.160;21.066;2023-10-13T04:06:47;12.95;;;5.30;;
35243;SDS011;37916;52.160;21.066;2023-10-13T04:16:47;10.45;;;5.35;;
35243;SDS011;37916;52.160;21.066;2023-10-13T04:26:54;11.60;;;5.88;;
35243;SDS011;37916;52.160;21.066;2023-10-13T04:37:12;12.20;;;6.22;;
35243;SDS011;37916;52.160;21.066;2023-10-13T04:47:28;9.93;;;4.70;;
35243;SDS011;37916;52.160;21.066;2023-10-13T04:57:29;13.35;;;6.22;;
35243;SDS011;37916;52.160;21.066;2023-10-13T05:07:34;11.30;;;5.68;;
35243;SDS011;37916;52.160;21.066;2023-10-13T05:17:54;10.15;;;6.07;;
35243;SDS011;37916;52.160;21.066;2023-10-13T05:28:13;11.05;;;5.55;;
35243;SDS011;37916;52.160;21.066;2023-10-13T05:38:32;10.13;;;5.05;;
35243;SDS011;37916;52.160;21.066;2023-10-13T05:48:51;11.23;;;5.93;;
35243;SDS011;37916;52.160;21.066;2023-10-13T05:58:58;11.02;;;6.88;;
35243;SDS011;37916;52.160;21.066;2023-10-13T06:09:19;18.95;;;7.32;;
35243;SDS011;37916;52.160;21.066;2023-10-13T06:19:40;12.05;;;6.10;;
35243;SDS011;37916;52.160;21.066;2023-10-13T06:30:00;12.20;;;5.90;;
35243;SDS011;37916;52.160;21.066;2023-10-13T06:40:02;10.60;;;6.38;;
35243;SDS011;37916;52.160;21.066;2023-10-13T06:50:24;15.52;;;8.23;;
35243;SDS011;37916;52.160;21.066;2023-10-13T07:00:26;13.98;;;7.03;;
35243;SDS011;37916;52.160;21.066;2023-10-13T07:10:34;20.30;;;7.35;;
35243;SDS011;37916;52.160;21.066;2023-10-13T07:20:54;17.55;;;7.32;;
35243;SDS011;37916;52.160;21.066;2023-10-13T07:30:57;10.77;;;5.77;;
35243;SDS011;37916;52.160;21.066;2023-10-13T07:40:58;8.82;;;6.07;;
35243;SDS011;37916;52.160;21.066;2023-10-13T07:51:08;15.93;;;5.47;;
35243;SDS011;37916;52.160;21.066;2023-10-13T08:01:19;17.30;;;7.53;;
35243;SDS011;37916;52.160;21.066;2023-10-13T08:11:19;11.07;;;4.90;;
35243;SDS011;37916;52.160;21.066;2023-10-13T08:21:23;10.90;;;4.30;;
35243;SDS011;37916;52.160;21.066;2023-10-13T08:31:24;9.57;;;4.53;;
35243;SDS011;37916;52.160;21.066;2023-10-13T08:41:29;12.20;;;4.70;;
35243;SDS011;37916;52.160;21.066;2023-10-13T08:51:35;10.35;;;5.95;;
35243;SDS011;37916;52.160;21.066;2023-10-13T09:02:14;16.43;;;6.30;;
35243;SDS011;37916;52.160;21.066;2023-10-13T09:12:28;14.55;;;6.30;;
35243;SDS011;37916;52.160;21.066;2023-10-13T09:22:32;14.30;;;7.32;;
35243;SDS011;37916;52.160;21.066;2023-10-13T09:32:36;14.00;;;6.80;;
35243;SDS011;37916;52.160;21.066;2023-10-13T09:42:45;18.83;;;6.63;;
35243;SDS011;37916;52.160;21.066;2023-10-13T09:52:47;14.68;;;6.70;;
35243;SDS011;37916;52.160;21.066;2023-10-13T10:02:51;15.40;;;7.27;;
35243;SDS011;37916;52.160;21.066;2023-10-13T10:13:00;14.07;;;6.60;;
35243;SDS011;37916;52.160;21.066;2023-10-13T10:23:07;12.65;;;6.60;;
35243;SDS011;37916;52.160;21.066;2023-10-13T10:33:29;8.65;;;5.03;;
35243;SDS011;37916;52.160;21.066;2023-10-13T10:53:42;13.00;;;6.00;;
35243;SDS011;37916;52.160;21.066;2023-10-13T11:03:52;16.63;;;6.35;;
35243;SDS011;37916;52.160;21.066;2023-10-13T11:14:24;14.88;;;6.15;;
35243;SDS011;37916;52.160;21.066;2023-10-13T11:24:28;12.70;;;6.32;;
35243;SDS011;37916;52.160;21.066;2023-10-13T11:44:43;13.95;;;5.28;;
35243;SDS011;37916;52.160;21.066;2023-10-13T11:54:44;11.05;;;6.15;;
35243;SDS011;37916;52.160;21.066;2023-10-13T12:04:45;11.95;;;5.75;;
35243;SDS011;37916;52.160;21.066;2023-10-13T12:14:56;12.75;;;5.75;;
35243;SDS011;37916;52.160;21.066;2023-10-13T12:24:58;10.70;;;5.55;;
35243;SDS011;37916;52.160;21.066;2023-10-13T12:34:59;11.07;;;6.05;;
35243;SDS011;37916;52.160;21.066;2023-10-13T12:45:03;17.45;;;6.07;;
35243;SDS011;37916;52.160;21.066;2023-10-13T12:55:27;15.85;;;6.28;;
35243;SDS011;37916;52.160;21.066;2023-10-13T13:06:15;13.20;;;6.22;;
35243;SDS011;37916;52.160;21.066;2023-10-13T13:16:18;13.35;;;6.93;;
35243;SDS011;37916;52.160;21.066;2023-10-13T13:26:23;13.65;;;6.82;;
35243;SDS011;37916;52.160;21.066;2023-10-13T13:36:24;17.00;;;6.22;;
35243;SDS011;37916;52.160;21.066;2023-10-13T13:46:25;10.25;;;6.25;;
35243;SDS011;37916;52.160;21.066;2023-10-13T13:56:32;9.27;;;6.50;;
35243;SDS011;37916;52.160;21.066;2023-10-13T14:06:38;10.73;;;6.82;;
35243;SDS011;37916;52.160;21.066;2023-10-13T14:16:39;14.27;;;7.32;;
35243;SDS011;37916;52.160;21.066;2023-10-13T14:26:49;13.38;;;7.53;;
35243;SDS011;37916;52.160;21.066;2023-10-13T14:36:52;15.18;;;7.63;;
35243;SDS011;37916;52.160;21.066;2023-10-13T14:46:54;21.03;;;8.00;;
35243;SDS011;37916;52.160;21.066;2023-10-13T14:57:01;16.88;;;8.18;;
35243;SDS011;37916;52.160;21.066;2023-10-13T15:07:02;13.15;;;7.55;;
35243;SDS011;37916;52.160;21.066;2023-10-13T15:17:07;14.35;;;7.53;;
35243;SDS011;37916;52.160;21.066;2023-10-13T15:27:09;11.75;;;8.35;;
35243;SDS011;37916;52.160;21.066;2023-10-13T15:37:10;15.30;;;8.88;;
35243;SDS011;37916;52.160;21.066;2023-10-13T15:47:12;13.65;;;8.63;;
35243;SDS011;37916;52.160;21.066;2023-10-13T15:57:13;18.43;;;9.87;;
35243;SDS011;37916;52.160;21.066;2023-10-13T16:07:16;13.77;;;8.48;;
35243;SDS011;37916;52.160;21.066;2023-10-13T16:17:19;16.38;;;8.73;;
35243;SDS011;37916;52.160;21.066;2023-10-13T16:27:23;14.27;;;9.68;;
35243;SDS011;37916;52.160;21.066;2023-10-13T16:37:23;18.92;;;10.38;;
35243;SDS011;37916;52.160;21.066;2023-10-13T16:47:24;15.97;;;10.00;;
35243;SDS011;37916;52.160;21.066;2023-10-13T16:57:25;14.82;;;9.77;;
35243;SDS011;37916;52.160;21.066;2023-10-13T17:07:26;15.23;;;9.60;;
35243;SDS011;37916;52.160;21.066;2023-10-13T17:17:30;19.75;;;10.30;;
35243;SDS011;37916;52.160;21.066;2023-10-13T17:27:31;19.90;;;10.60;;
35243;SDS011;37916;52.160;21.066;2023-10-13T17:37:37;14.05;;;10.38;;
35243;SDS011;37916;52.160;21.066;2023-10-13T17:47:42;15.63;;;10.20;;
35243;SDS011;37916;52.160;21.066;2023-10-13T17:57:43;23.70;;;11.50;;
35243;SDS011;37916;52.160;21.066;2023-10-13T18:07:47;18.55;;;10.95;;
35243;SDS011;37916;52.160;21.066;2023-10-13T18:17:49;18.05;;;11.07;;
35243;SDS011;37916;52.160;21.066;2023-10-13T18:27:53;16.05;;;11.38;;
35243;SDS011;37916;52.160;21.066;2023-10-13T18:37:53;18.80;;;12.68;;
35243;SDS011;37916;52.160;21.066;2023-10-13T18:47:54;21.40;;;12.35;;
35243;SDS011;37916;52.160;21.066;2023-10-13T18:57:54;22.27;;;12.63;;
35243;SDS011;37916;52.160;21.066;2023-10-13T19:07:55;20.90;;;12.50;;
35243;SDS011;37916;52.160;21.066;2023-10-13T20:19:30;14.13;;;10.10;;
35243;SDS011;37916;52.160;21.066;2023-10-13T20:29:31;13.27;;;10.15;;
35243;SDS011;37916;52.160;21.066;2023-10-13T20:39:32;14.18;;;9.68;;
35243;SDS011;37916;52.160;21.066;2023-10-13T20:49:33;16.03;;;9.97;;
35243;SDS011;37916;52.160;21.066;2023-10-13T20:59:34;15.88;;;9.57;;
35243;SDS011;37916;52.160;21.066;2023-10-13T21:09:43;15.25;;;10.00;;
35243;SDS011;37916;52.160;21.066;2023-10-13T21:29:49;13.18;;;9.77;;
35243;SDS011;37916;52.160;21.066;2023-10-13T21:39:50;15.45;;;8.73;;
35243;SDS011;37916;52.160;21.066;2023-10-13T21:49:51;15.05;;;8.27;;
35243;SDS011;37916;52.160;21.066;2023-10-13T21:59:52;14.55;;;8.05;;
35243;SDS011;37916;52.160;21.066;2023-10-13T22:09:53;14.32;;;7.93;;
35243;SDS011;37916;52.160;21.066;2023-10-13T22:19:54;13.77;;;8.47;;
35243;SDS011;37916;52.160;21.066;2023-10-13T22:29:55;15.48;;;7.88;;
35243;SDS011;37916;52.160;21.066;2023-10-13T22:39:57;13.95;;;8.02;;
35243;SDS011;37916;52.160;21.066;2023-10-13T22:49:59;13.25;;;8.68;;
35243;SDS011;37916;52.160;21.066;2023-10-13T23:00:03;15.90;;;8.83;;
35243;SDS011;37916;52.160;21.066;2023-10-13T23:10:10;13.63;;;7.95;;
35243;SDS011;37916;52.160;21.066;2023-10-13T23:20:31;14.75;;;7.78;;
35243;SDS011;37916;52.160;21.066;2023-10-13T23:30:32;13.43;;;7.38;;
35243;SDS011;37916;52.160;21.066;2023-10-13T23:40:37;13.88;;;8.45;;
35243;SDS011;37916;52.160;21.066;2023-10-13T23:50:44;12.80;;;7.97;;
